createdAt,value
2023-04-09T00:00:50.477Z,9.30
2023-04-09T00:02:52.358Z,9.30
2023-04-09T00:04:54.329Z,9.30
2023-04-09T00:06:56.149Z,9.30
2023-04-09T00:08:58.149Z,9.40
2023-04-09T00:11:00.533Z,9.40
2023-04-09T00:13:02.455Z,9.40
2023-04-09T00:15:04.641Z,9.40
2023-04-09T00:17:06.565Z,9.40
2023-04-09T00:19:08.430Z,9.30
2023-04-09T00:21:10.317Z,9.40
2023-04-09T00:23:13.076Z,9.30
2023-04-09T00:25:16.022Z,9.30
2023-04-09T00:27:17.874Z,9.30
2023-04-09T00:29:19.824Z,9.30
2023-04-09T00:31:21.750Z,9.30
2023-04-09T00:33:23.869Z,9.30
2023-04-09T00:35:26.022Z,9.30
2023-04-09T00:37:27.877Z,9.20
2023-04-09T00:39:29.936Z,9.20
2023-04-09T00:41:32.737Z,9.20
2023-04-09T00:43:34.661Z,9.30
2023-04-09T00:45:36.622Z,9.20
2023-04-09T00:47:38.629Z,9.30
2023-04-09T00:49:40.933Z,9.20
2023-04-09T00:51:44.108Z,9.30
2023-04-09T00:53:47.876Z,9.20
2023-04-09T00:55:49.752Z,9.20
2023-04-09T00:57:51.632Z,9.30
2023-04-09T00:59:53.526Z,9.20
2023-04-09T01:01:55.827Z,9.30
2023-04-09T01:03:58.106Z,9.20
2023-04-09T01:06:23.653Z,9.30
2023-04-09T01:08:55.017Z,9.30
2023-04-09T01:11:23.525Z,9.30
2023-04-09T01:13:46.366Z,16.80
2023-04-09T01:15:59.391Z,18.30
2023-04-09T01:18:07.513Z,18.80
2023-04-09T01:20:22.578Z,20.70
2023-04-09T01:22:46.374Z,20.40
2023-04-09T01:25:04.868Z,20.20
2023-04-09T01:27:08.363Z,20.00
2023-04-09T01:29:11.286Z,20.00
2023-04-09T01:31:17.320Z,19.80
2023-04-09T01:33:20.821Z,19.50
2023-04-09T01:35:23.227Z,19.50
2023-04-09T01:37:26.322Z,19.30
2023-04-09T01:39:28.729Z,19.10
2023-04-09T01:41:33.496Z,19.00
2023-04-09T01:43:36.860Z,18.80
2023-04-09T01:45:39.591Z,18.80
2023-04-09T01:47:41.854Z,18.50
2023-04-09T01:49:44.892Z,18.40
2023-04-09T01:51:48.415Z,18.30
2023-04-09T01:53:50.760Z,18.20
2023-04-09T01:55:52.708Z,18.10
2023-04-09T01:57:54.599Z,17.90
2023-04-09T01:59:56.590Z,17.70
2023-04-09T02:02:05.472Z,17.60
2023-04-09T02:04:16.502Z,17.30
2023-04-09T02:06:48.537Z,17.30
2023-04-09T02:08:52.847Z,17.20
2023-04-09T02:10:58.949Z,17.20
2023-04-09T02:13:03.284Z,17.10
2023-04-09T02:15:07.396Z,17.10
2023-04-09T02:17:09.450Z,17.00
2023-04-09T02:19:11.679Z,17.00
2023-04-09T02:21:13.924Z,16.80
2023-04-09T02:23:18.787Z,16.80
2023-04-09T02:25:21.514Z,16.70
2023-04-09T02:27:23.396Z,16.70
2023-04-09T02:29:25.247Z,16.70
2023-04-09T02:31:28.408Z,16.70
2023-04-09T02:33:30.528Z,16.70
2023-04-09T02:35:32.800Z,16.70
2023-04-09T02:37:34.670Z,16.50
2023-04-09T02:39:36.512Z,16.60
2023-04-09T02:41:38.352Z,16.50
2023-04-09T02:43:40.225Z,16.60
2023-04-09T02:45:42.202Z,16.60
2023-04-09T02:47:44.264Z,16.50
2023-04-09T02:49:47.591Z,16.40
2023-04-09T02:51:49.497Z,16.50
2023-04-09T02:53:51.379Z,16.50
2023-04-09T02:55:53.279Z,16.40
2023-04-09T02:57:55.156Z,16.40
2023-04-09T02:59:57.009Z,16.40
2023-04-09T03:01:58.949Z,16.40
2023-04-09T03:04:01.557Z,16.40
2023-04-09T03:06:03.694Z,16.40
2023-04-09T03:08:05.830Z,16.40
2023-04-09T03:10:08.099Z,16.40
2023-04-09T03:12:09.927Z,16.50
2023-04-09T03:14:11.780Z,16.40
2023-04-09T03:16:13.874Z,16.40
2023-04-09T03:18:15.690Z,16.40
2023-04-09T03:20:17.713Z,16.40
2023-04-09T03:22:19.682Z,16.40
2023-04-09T03:24:21.696Z,16.50
2023-04-09T03:26:23.430Z,16.40
2023-04-09T03:28:25.326Z,16.40
2023-04-09T03:30:27.178Z,16.50
2023-04-09T03:32:29.185Z,16.40
2023-04-09T03:34:31.015Z,16.50
2023-04-09T03:36:33.149Z,16.50
2023-04-09T03:38:34.874Z,16.50
2023-04-09T03:40:36.902Z,16.50
2023-04-09T03:42:38.603Z,16.50
2023-04-09T03:44:40.456Z,16.60
2023-04-09T03:46:42.464Z,16.60
2023-04-09T03:48:44.931Z,16.60
2023-04-09T03:50:47.101Z,16.60
2023-04-09T03:52:49.044Z,16.50
2023-04-09T03:54:50.886Z,16.50
2023-04-09T03:56:52.726Z,16.40
2023-04-09T03:58:54.984Z,16.50
2023-04-09T04:00:57.069Z,16.40
2023-04-09T04:02:59.098Z,16.40
2023-04-09T04:05:01.106Z,16.30
2023-04-09T04:07:05.864Z,16.40
2023-04-09T04:09:07.693Z,16.50
2023-04-09T04:11:09.562Z,16.60
2023-04-09T04:13:11.518Z,16.60
2023-04-09T04:15:13.532Z,16.70
2023-04-09T04:17:15.540Z,16.80
2023-04-09T04:19:17.434Z,16.80
2023-04-09T04:21:19.313Z,16.80
2023-04-09T04:23:21.225Z,16.90
2023-04-09T04:25:23.058Z,16.90
2023-04-09T04:27:24.902Z,16.90
2023-04-09T04:29:28.539Z,17.00
2023-04-09T04:31:30.527Z,16.80
2023-04-09T04:33:32.394Z,16.90
2023-04-09T04:35:34.259Z,16.80
2023-04-09T04:37:36.129Z,17.00
2023-04-09T04:39:38.044Z,16.90
2023-04-09T04:41:39.932Z,17.00
2023-04-09T04:43:41.749Z,17.00
2023-04-09T04:45:43.585Z,17.00
2023-04-09T04:47:45.840Z,17.00
2023-04-09T04:49:47.749Z,16.90
2023-04-09T04:51:49.648Z,17.00
2023-04-09T04:53:51.521Z,17.00
2023-04-09T04:55:53.842Z,17.10
2023-04-09T04:57:55.811Z,17.10
2023-04-09T04:59:57.747Z,17.10
2023-04-09T05:01:59.781Z,17.10
2023-04-09T05:04:03.286Z,17.10
2023-04-09T05:06:05.354Z,17.10
2023-04-09T05:08:07.204Z,17.10
2023-04-09T05:10:09.587Z,17.20
2023-04-09T05:12:11.521Z,17.20
2023-04-09T05:14:13.358Z,17.20
2023-04-09T05:16:19.700Z,17.20
2023-04-09T05:18:21.731Z,17.30
2023-04-09T05:20:23.611Z,17.30
2023-04-09T05:22:25.542Z,17.30
2023-04-09T05:24:27.457Z,17.30
2023-04-09T05:26:29.899Z,17.40
2023-04-09T05:28:33.234Z,17.40
2023-04-09T05:30:35.418Z,17.30
2023-04-09T05:32:37.541Z,17.30
2023-04-09T05:34:39.332Z,17.40
2023-04-09T05:36:41.330Z,17.40
2023-04-09T05:38:43.950Z,17.50
2023-04-09T05:40:45.912Z,17.40
2023-04-09T05:42:47.785Z,17.40
2023-04-09T05:44:49.627Z,17.40
2023-04-09T05:46:51.492Z,17.50
2023-04-09T05:48:53.686Z,17.50
2023-04-09T05:50:56.058Z,17.40
2023-04-09T05:52:58.009Z,17.50
2023-04-09T05:54:59.935Z,17.40
2023-04-09T05:57:01.772Z,17.40
2023-04-09T05:59:03.592Z,17.50
2023-04-09T06:01:05.507Z,17.70
2023-04-09T06:03:07.470Z,17.90
2023-04-09T06:05:09.424Z,17.90
2023-04-09T06:07:11.541Z,17.90
2023-04-09T06:09:13.536Z,17.80
2023-04-09T06:11:15.652Z,17.70
2023-04-09T06:13:17.474Z,17.60
2023-04-09T06:15:19.440Z,17.60
2023-04-09T06:17:21.451Z,17.70
2023-04-09T06:19:23.780Z,17.60
2023-04-09T06:21:25.596Z,17.50
2023-04-09T06:23:27.449Z,17.60
2023-04-09T06:25:29.327Z,17.70
2023-04-09T06:27:31.484Z,17.70
2023-04-09T06:29:33.580Z,17.70
2023-04-09T06:31:35.789Z,17.70
2023-04-09T06:33:37.718Z,17.70
2023-04-09T06:35:39.595Z,17.70
2023-04-09T06:37:41.646Z,17.70
2023-04-09T06:39:53.951Z,17.80
2023-04-09T06:42:04.024Z,17.90
2023-04-09T06:44:06.004Z,18.20
2023-04-09T06:46:08.989Z,18.30
2023-04-09T06:48:11.612Z,18.40
2023-04-09T06:50:13.628Z,18.60
2023-04-09T06:52:15.445Z,18.50
2023-04-09T06:54:17.321Z,18.60
2023-04-09T06:56:19.207Z,18.60
2023-04-09T06:58:21.258Z,18.60
2023-04-09T07:00:23.224Z,18.80
2023-04-09T07:02:25.341Z,18.80
2023-04-09T07:04:27.533Z,18.70
2023-04-09T07:06:29.377Z,18.60
2023-04-09T07:08:31.327Z,18.80
2023-04-09T07:10:33.169Z,19.10
2023-04-09T07:12:37.770Z,19.40
2023-04-09T07:14:39.773Z,19.30
2023-04-09T07:16:41.616Z,19.30
2023-04-09T07:18:43.619Z,19.00
2023-04-09T07:20:45.754Z,18.80
2023-04-09T07:22:47.505Z,18.70
2023-04-09T07:24:58.797Z,18.80
2023-04-09T07:27:04.339Z,19.00
2023-04-09T07:29:06.328Z,19.20
2023-04-09T07:31:08.176Z,19.10
2023-04-09T07:33:10.412Z,19.20
2023-04-09T07:35:12.500Z,19.60
2023-04-09T07:37:14.371Z,19.60
2023-04-09T07:39:16.324Z,19.60
2023-04-09T07:41:18.245Z,19.50
2023-04-09T07:43:22.513Z,19.30
2023-04-09T07:45:24.601Z,19.00
2023-04-09T07:47:26.995Z,18.90
2023-04-09T07:49:28.962Z,18.80
2023-04-09T07:51:31.432Z,18.50
2023-04-09T07:53:33.265Z,18.30
2023-04-09T07:55:35.110Z,18.50
2023-04-09T07:57:37.113Z,18.70
2023-04-09T07:59:38.952Z,18.90
2023-04-09T08:01:41.246Z,18.60
2023-04-09T08:03:43.304Z,18.60
2023-04-09T08:05:45.615Z,18.70
2023-04-09T08:07:47.449Z,18.80
2023-04-09T08:09:49.333Z,18.40
2023-04-09T08:11:51.544Z,18.10
2023-04-09T08:13:53.780Z,18.00
2023-04-09T08:15:55.824Z,18.00
2023-04-09T08:17:57.715Z,18.00
2023-04-09T08:19:59.588Z,18.10
2023-04-09T08:22:01.977Z,18.50
2023-04-09T08:24:05.684Z,18.50
2023-04-09T08:26:07.583Z,18.50
2023-04-09T08:28:09.738Z,18.40
2023-04-09T08:30:12.148Z,18.30
2023-04-09T08:32:14.248Z,18.00
2023-04-09T08:34:17.559Z,17.90
2023-04-09T08:36:20.543Z,17.80
2023-04-09T08:38:22.498Z,17.80
2023-04-09T08:40:24.445Z,18.00
2023-04-09T08:42:26.978Z,18.40
2023-04-09T08:44:29.752Z,18.50
2023-04-09T08:46:31.669Z,18.20
2023-04-09T08:48:33.639Z,18.40
2023-04-09T08:50:35.589Z,18.00
2023-04-09T08:52:38.412Z,17.00
2023-04-09T08:54:40.403Z,16.90
2023-04-09T08:56:42.336Z,16.80
2023-04-09T08:58:46.585Z,16.40
2023-04-09T09:00:48.430Z,15.90
2023-04-09T09:03:17.582Z,15.50
2023-04-09T09:05:36.539Z,14.80
2023-04-09T09:07:54.693Z,14.10
2023-04-09T09:10:03.320Z,13.90
2023-04-09T09:12:05.223Z,14.20
2023-04-09T09:14:07.061Z,14.50
2023-04-09T09:16:14.448Z,14.60
2023-04-09T09:18:17.547Z,15.00
2023-04-09T09:20:21.052Z,14.90
2023-04-09T09:22:22.925Z,15.00
2023-04-09T09:24:24.940Z,14.60
2023-04-09T09:26:29.337Z,14.50
2023-04-09T09:28:36.127Z,14.40
2023-04-09T09:30:39.944Z,14.20
2023-04-09T09:32:42.601Z,14.00
2023-04-09T09:34:58.644Z,14.00
2023-04-09T09:37:00.612Z,13.90
2023-04-09T09:39:03.865Z,13.90
2023-04-09T09:41:17.920Z,14.30
2023-04-09T09:43:19.864Z,14.40
2023-04-09T09:45:22.131Z,14.30
2023-04-09T09:47:25.360Z,14.50
2023-04-09T09:49:27.395Z,14.70
2023-04-09T09:51:31.364Z,14.80
2023-04-09T09:53:36.547Z,15.00
2023-04-09T09:55:40.559Z,14.70
2023-04-09T09:57:44.906Z,14.50
2023-04-09T10:00:14.141Z,14.50
2023-04-09T10:02:21.173Z,14.00
2023-04-09T10:04:25.256Z,13.80
2023-04-09T10:06:28.048Z,14.00
2023-04-09T10:08:33.468Z,13.80
2023-04-09T10:10:36.606Z,13.80
2023-04-09T10:12:41.816Z,13.80
2023-04-09T10:14:45.264Z,13.90
2023-04-09T10:16:47.277Z,13.60
2023-04-09T10:18:49.070Z,13.70
2023-04-09T10:21:05.845Z,13.50
2023-04-09T10:23:32.662Z,13.40
2023-04-09T10:25:34.610Z,13.60
2023-04-09T10:27:37.025Z,14.00
2023-04-09T10:29:49.969Z,14.00
2023-04-09T10:32:03.243Z,14.50
2023-04-09T10:34:05.263Z,14.50
2023-04-09T10:36:12.365Z,14.70
2023-04-09T10:38:15.380Z,14.60
2023-04-09T10:40:21.817Z,14.50
2023-04-09T10:42:33.036Z,14.80
2023-04-09T10:44:36.114Z,14.80
2023-04-09T10:46:38.071Z,14.80
2023-04-09T10:48:40.061Z,14.10
2023-04-09T10:50:45.260Z,14.60
2023-04-09T10:52:51.785Z,14.60
2023-04-09T10:54:54.746Z,14.80
2023-04-09T10:57:26.496Z,14.70
2023-04-09T10:59:28.585Z,14.50
2023-04-09T11:01:30.948Z,14.70
2023-04-09T11:03:40.328Z,15.00
2023-04-09T11:05:46.669Z,14.90
2023-04-09T11:07:54.610Z,15.10
2023-04-09T11:09:56.497Z,15.60
2023-04-09T11:11:58.631Z,15.50
2023-04-09T11:14:01.758Z,15.50
2023-04-09T11:16:07.132Z,15.40
2023-04-09T11:18:13.919Z,15.20
2023-04-09T11:20:21.563Z,15.20
2023-04-09T11:22:23.510Z,15.30
2023-04-09T11:24:27.094Z,15.10
2023-04-09T11:26:52.733Z,15.10
2023-04-09T11:28:58.435Z,15.40
2023-04-09T11:31:05.015Z,15.60
2023-04-09T11:33:08.611Z,15.50
2023-04-09T11:35:16.821Z,15.30
2023-04-09T11:37:19.162Z,15.80
2023-04-09T11:39:21.113Z,16.20
2023-04-09T11:41:38.462Z,16.10
2023-04-09T11:43:40.902Z,16.10
2023-04-09T11:45:43.289Z,15.50
2023-04-09T11:47:47.292Z,15.30
2023-04-09T11:49:49.323Z,15.50
2023-04-09T11:51:51.516Z,15.00
2023-04-09T11:53:53.946Z,15.10
2023-04-09T11:55:56.369Z,15.20
2023-04-09T11:58:01.358Z,15.30
2023-04-09T12:00:12.266Z,15.20
2023-04-09T12:02:18.921Z,15.40
2023-04-09T12:04:22.594Z,15.40
2023-04-09T12:06:27.436Z,15.20
2023-04-09T12:08:29.522Z,15.40
2023-04-09T12:10:32.371Z,15.70
2023-04-09T12:12:42.092Z,15.50
2023-04-09T12:14:47.404Z,15.00
2023-04-09T12:16:52.791Z,15.00
2023-04-09T12:18:55.886Z,15.00
2023-04-09T12:20:57.786Z,15.30
2023-04-09T12:23:01.314Z,15.00
2023-04-09T12:25:03.245Z,15.00
2023-04-09T12:27:05.174Z,15.20
2023-04-09T12:29:07.027Z,15.00
2023-04-09T12:31:12.039Z,14.70
2023-04-09T12:33:13.978Z,14.70
2023-04-09T12:35:16.041Z,14.50
2023-04-09T12:37:17.741Z,14.70
2023-04-09T12:39:20.994Z,15.00
2023-04-09T12:41:22.959Z,15.20
2023-04-09T12:43:24.910Z,15.30
2023-04-09T12:45:28.030Z,15.50
2023-04-09T12:47:29.997Z,15.60
2023-04-09T12:49:33.235Z,15.50
2023-04-09T12:51:35.507Z,15.80
2023-04-09T12:53:37.486Z,16.00
2023-04-09T12:55:42.221Z,16.10
2023-04-09T12:57:47.402Z,16.00
2023-04-09T12:59:49.302Z,15.60
2023-04-09T13:01:51.684Z,15.20
2023-04-09T13:03:53.944Z,15.10
2023-04-09T13:05:56.644Z,15.10
2023-04-09T13:07:58.866Z,14.80
2023-04-09T13:10:00.856Z,14.40
2023-04-09T13:12:02.919Z,14.40
2023-04-09T13:14:04.625Z,14.30
2023-04-09T13:16:07.632Z,14.30
2023-04-09T13:18:09.986Z,14.30
2023-04-09T13:20:12.207Z,14.20
2023-04-09T13:22:14.968Z,14.20
2023-04-09T13:24:17.203Z,14.10
2023-04-09T13:26:19.086Z,14.10
2023-04-09T13:28:20.964Z,14.20
2023-04-09T13:30:23.534Z,14.30
2023-04-09T13:32:25.608Z,14.20
2023-04-09T13:34:27.457Z,14.00
2023-04-09T13:36:32.621Z,13.70
2023-04-09T13:38:34.447Z,13.60
2023-04-09T13:40:36.362Z,13.50
2023-04-09T13:42:38.536Z,13.60
2023-04-09T13:44:42.383Z,13.60
2023-04-09T13:46:44.559Z,13.50
2023-04-09T13:48:46.767Z,13.50
2023-04-09T13:50:48.751Z,13.50
2023-04-09T13:52:50.652Z,13.60
2023-04-09T13:54:53.387Z,13.70
2023-04-09T13:56:55.479Z,13.70
2023-04-09T13:58:57.258Z,13.80
2023-04-09T14:00:59.558Z,13.80
2023-04-09T14:03:03.546Z,13.70
2023-04-09T14:05:06.142Z,13.60
2023-04-09T14:07:08.416Z,13.70
2023-04-09T14:09:10.928Z,13.50
2023-04-09T14:11:15.260Z,13.50
2023-04-09T14:13:17.211Z,13.50
2023-04-09T14:15:19.188Z,13.40
2023-04-09T14:17:21.136Z,13.30
2023-04-09T14:19:23.392Z,13.30
2023-04-09T14:21:26.916Z,13.30
2023-04-09T14:23:28.989Z,13.10
2023-04-09T14:25:30.960Z,13.10
2023-04-09T14:27:33.251Z,12.90
2023-04-09T14:29:35.400Z,12.80
2023-04-09T14:31:37.209Z,12.80
2023-04-09T14:33:39.098Z,12.90
2023-04-09T14:35:41.104Z,13.00
2023-04-09T14:37:42.833Z,13.10
2023-04-09T14:39:44.705Z,13.20
2023-04-09T14:41:46.609Z,13.20
2023-04-09T14:43:48.465Z,13.20
2023-04-09T14:45:50.638Z,13.10
2023-04-09T14:47:52.736Z,13.20
2023-04-09T14:49:54.499Z,13.10
2023-04-09T14:51:56.587Z,13.10
2023-04-09T14:53:58.466Z,13.00
2023-04-09T14:56:00.289Z,12.90
2023-04-09T14:58:04.725Z,12.80
2023-04-09T15:00:13.608Z,12.80
2023-04-09T15:02:15.670Z,12.70
2023-04-09T15:04:17.531Z,12.70
2023-04-09T15:06:19.671Z,12.70
2023-04-09T15:08:21.610Z,12.70
2023-04-09T15:10:23.518Z,12.70
2023-04-09T15:12:28.330Z,12.70
2023-04-09T15:14:31.325Z,12.60
2023-04-09T15:16:38.250Z,12.50
2023-04-09T15:18:40.562Z,12.40
2023-04-09T15:20:43.586Z,12.30
2023-04-09T15:22:45.604Z,12.30
2023-04-09T15:24:47.768Z,12.20
2023-04-09T15:26:49.891Z,12.20
2023-04-09T15:28:53.682Z,12.20
2023-04-09T15:30:55.851Z,12.10
2023-04-09T15:32:58.136Z,12.00
2023-04-09T15:35:00.837Z,12.00
2023-04-09T15:37:02.800Z,11.90
2023-04-09T15:39:05.026Z,11.90
2023-04-09T15:41:06.925Z,11.70
2023-04-09T15:43:08.792Z,11.10
2023-04-09T15:45:11.029Z,10.60
2023-04-09T15:47:12.878Z,10.60
2023-04-09T15:49:14.897Z,10.40
2023-04-09T15:51:16.903Z,10.40
2023-04-09T15:53:19.736Z,10.50
2023-04-09T15:55:23.073Z,10.50
2023-04-09T15:57:25.082Z,10.40
2023-04-09T15:59:26.970Z,10.30
2023-04-09T16:01:28.915Z,10.30
2023-04-09T16:03:35.400Z,10.30
2023-04-09T16:05:37.282Z,10.30
2023-04-09T16:07:39.872Z,10.30
2023-04-09T16:09:41.792Z,10.30
2023-04-09T16:11:43.694Z,10.20
2023-04-09T16:13:46.220Z,10.30
2023-04-09T16:15:49.400Z,10.20
2023-04-09T16:17:51.340Z,10.30
2023-04-09T16:19:53.357Z,10.20
2023-04-09T16:21:55.291Z,10.20
2023-04-09T16:23:57.173Z,10.20
2023-04-09T16:25:59.288Z,10.20
2023-04-09T16:28:01.355Z,10.20
2023-04-09T16:30:03.654Z,10.20
2023-04-09T16:32:06.304Z,10.20
2023-04-09T16:34:08.437Z,10.20
2023-04-09T16:36:10.490Z,10.10
2023-04-09T16:38:12.663Z,10.10
2023-04-09T16:40:14.599Z,10.00
2023-04-09T16:42:16.698Z,10.00
2023-04-09T16:44:19.597Z,9.90
2023-04-09T16:46:21.570Z,9.80
2023-04-09T16:48:24.050Z,9.80
2023-04-09T16:50:26.319Z,9.80
2023-04-09T16:52:29.358Z,9.80
2023-04-09T16:54:31.214Z,9.80
2023-04-09T16:56:33.307Z,9.90
2023-04-09T16:58:35.078Z,9.90
2023-04-09T17:00:37.182Z,9.90
2023-04-09T17:02:39.610Z,10.00
2023-04-09T17:04:41.957Z,10.00
2023-04-09T17:06:43.894Z,10.00
2023-04-09T17:08:46.324Z,10.00
2023-04-09T17:10:48.147Z,9.90
2023-04-09T17:12:50.658Z,10.00
2023-04-09T17:14:52.539Z,10.00
2023-04-09T17:16:54.566Z,10.00
2023-04-09T17:18:56.506Z,10.00
2023-04-09T17:20:59.376Z,10.00
2023-04-09T17:23:01.669Z,10.00
2023-04-09T17:25:04.797Z,10.00
2023-04-09T17:27:07.467Z,10.00
2023-04-09T17:29:09.395Z,10.00
2023-04-09T17:31:16.131Z,10.00
2023-04-09T17:33:18.232Z,9.80
2023-04-09T17:35:20.305Z,9.80
2023-04-09T17:37:22.049Z,9.80
2023-04-09T17:39:25.610Z,9.80
2023-04-09T17:41:27.780Z,9.70
2023-04-09T17:43:29.665Z,9.70
2023-04-09T17:45:31.579Z,9.70
2023-04-09T17:47:33.609Z,9.70
2023-04-09T17:49:35.771Z,9.70
2023-04-09T17:51:37.741Z,9.70
2023-04-09T17:53:39.612Z,9.70
2023-04-09T17:55:47.204Z,9.60
2023-04-09T17:57:49.256Z,9.60
2023-04-09T17:59:51.134Z,9.60
2023-04-09T18:01:55.086Z,9.60
2023-04-09T18:03:57.407Z,9.60
2023-04-09T18:06:00.698Z,9.60
2023-04-09T18:08:02.558Z,9.50
2023-04-09T18:10:05.574Z,9.50
2023-04-09T18:12:07.464Z,9.50
2023-04-09T18:14:09.780Z,9.50
2023-04-09T18:16:12.670Z,9.50
2023-04-09T18:18:14.941Z,9.60
2023-04-09T18:20:16.848Z,9.60
2023-04-09T18:22:18.721Z,9.60
2023-04-09T18:24:20.974Z,9.60
2023-04-09T18:26:23.038Z,9.60
2023-04-09T18:28:24.826Z,9.50
2023-04-09T18:30:26.756Z,9.50
2023-04-09T18:32:29.268Z,9.50
2023-04-09T18:34:31.521Z,9.50
2023-04-09T18:36:33.622Z,9.60
2023-04-09T18:38:37.045Z,9.60
2023-04-09T18:40:43.814Z,9.70
2023-04-09T18:42:52.886Z,9.70
2023-04-09T18:44:54.830Z,9.70
2023-04-09T18:46:57.023Z,9.70
2023-04-09T18:48:59.089Z,9.70
2023-04-09T18:51:03.122Z,9.70
2023-04-09T18:53:06.071Z,9.70
2023-04-09T18:55:08.899Z,9.80
2023-04-09T18:57:11.310Z,9.80
2023-04-09T18:59:13.397Z,9.80
2023-04-09T19:01:15.432Z,9.70
2023-04-09T19:03:18.279Z,9.80
2023-04-09T19:05:22.368Z,9.70
2023-04-09T19:07:24.427Z,9.70
2023-04-09T19:09:27.260Z,9.70
2023-04-09T19:11:29.296Z,9.60
2023-04-09T19:13:31.200Z,9.70
2023-04-09T19:15:33.111Z,9.70
2023-04-09T19:17:35.041Z,9.70
2023-04-09T19:19:37.329Z,9.60
2023-04-09T19:21:39.853Z,9.60
2023-04-09T19:23:41.742Z,9.60
2023-04-09T19:25:43.614Z,9.60
2023-04-09T19:27:46.195Z,9.60
2023-04-09T19:29:48.150Z,9.60
2023-04-09T19:31:50.454Z,9.60
2023-04-09T19:33:52.462Z,9.70
2023-04-09T19:35:56.571Z,9.70
2023-04-09T19:37:58.755Z,9.70
2023-04-09T19:40:06.783Z,9.70
2023-04-09T19:42:08.661Z,9.70
2023-04-09T19:44:10.624Z,9.70
2023-04-09T19:46:13.214Z,9.70
2023-04-09T19:48:15.958Z,9.70
2023-04-09T19:50:18.084Z,9.80
2023-04-09T19:52:20.439Z,9.80
2023-04-09T19:54:22.374Z,9.80
2023-04-09T19:56:25.315Z,9.80
2023-04-09T19:58:27.465Z,9.80
2023-04-09T20:00:29.395Z,9.80
2023-04-09T20:02:32.004Z,9.80
2023-04-09T20:04:34.253Z,9.80
2023-04-09T20:06:36.035Z,9.80
2023-04-09T20:08:38.249Z,9.90
2023-04-09T20:10:41.983Z,9.90
2023-04-09T20:12:47.724Z,9.80
2023-04-09T20:14:50.057Z,9.80
2023-04-09T20:16:51.989Z,9.80
2023-04-09T20:18:54.156Z,9.80
2023-04-09T20:20:56.214Z,9.80
2023-04-09T20:22:58.379Z,9.80
2023-04-09T20:25:00.835Z,9.90
2023-04-09T20:27:04.218Z,9.90
2023-04-09T20:29:07.500Z,9.90
2023-04-09T20:31:09.363Z,9.90
2023-04-09T20:33:11.735Z,9.90
2023-04-09T20:35:14.615Z,9.90
2023-04-09T20:37:16.576Z,10.00
2023-04-09T20:39:18.421Z,10.00
2023-04-09T20:41:20.349Z,10.00
2023-04-09T20:43:22.369Z,10.10
2023-04-09T20:45:24.214Z,10.00
2023-04-09T20:47:27.149Z,10.00
2023-04-09T20:49:29.128Z,10.10
2023-04-09T20:51:30.968Z,10.00
2023-04-09T20:53:32.957Z,10.10
2023-04-09T20:55:35.726Z,10.10
2023-04-09T20:57:37.584Z,10.10
2023-04-09T20:59:39.445Z,10.10
2023-04-09T21:01:41.409Z,10.10
2023-04-09T21:03:43.478Z,10.10
2023-04-09T21:05:45.542Z,10.10
2023-04-09T21:07:47.407Z,10.10
2023-04-09T21:09:49.523Z,10.00
2023-04-09T21:11:51.444Z,10.00
2023-04-09T21:13:55.311Z,10.00
2023-04-09T21:15:58.172Z,10.00
2023-04-09T21:18:00.211Z,10.00
2023-04-09T21:20:02.074Z,10.00
2023-04-09T21:22:03.958Z,10.00
2023-04-09T21:24:06.017Z,10.00
2023-04-09T21:26:09.005Z,10.00
2023-04-09T21:28:11.618Z,10.00
2023-04-09T21:30:13.499Z,10.00
2023-04-09T21:32:15.679Z,9.90
2023-04-09T21:34:17.603Z,10.00
2023-04-09T21:36:19.571Z,9.90
2023-04-09T21:38:21.526Z,9.90
2023-04-09T21:40:23.899Z,9.90
2023-04-09T21:42:25.768Z,9.90
2023-04-09T21:44:27.653Z,9.90
2023-04-09T21:46:29.830Z,9.90
2023-04-09T21:48:31.764Z,10.00
2023-04-09T21:50:33.666Z,10.00
2023-04-09T21:52:35.628Z,10.00
2023-04-09T21:54:37.836Z,9.90
2023-04-09T21:56:39.931Z,9.90
2023-04-09T21:58:41.670Z,9.90
2023-04-09T22:00:43.535Z,9.80
2023-04-09T22:02:46.311Z,9.90
2023-04-09T22:04:48.340Z,9.80
2023-04-09T22:06:50.613Z,9.80
2023-04-09T22:08:56.001Z,9.90
2023-04-09T22:10:58.407Z,9.80
2023-04-09T22:13:00.345Z,9.80
2023-04-09T22:15:03.852Z,9.70
2023-04-09T22:17:06.225Z,9.70
2023-04-09T22:19:08.600Z,9.60
2023-04-09T22:21:16.583Z,9.50
2023-04-09T22:23:18.450Z,9.40
2023-04-09T22:25:20.433Z,9.40
2023-04-09T22:27:22.341Z,9.40
2023-04-09T22:29:25.605Z,9.50
2023-04-09T22:31:27.889Z,9.50
2023-04-09T22:33:29.835Z,9.60
2023-04-09T22:35:32.217Z,9.70
2023-04-09T22:37:34.130Z,9.70
2023-04-09T22:39:36.486Z,9.70
2023-04-09T22:41:38.776Z,9.70
2023-04-09T22:43:40.626Z,9.70
2023-04-09T22:45:42.593Z,9.70
2023-04-09T22:47:44.491Z,9.60
2023-04-09T22:49:46.781Z,9.70
2023-04-09T22:51:48.654Z,9.70
2023-04-09T22:53:50.515Z,9.70
2023-04-09T22:55:54.884Z,9.70
2023-04-09T22:57:58.065Z,9.70
2023-04-09T22:59:59.896Z,9.80
2023-04-09T23:02:01.877Z,9.70
2023-04-09T23:04:03.732Z,9.70
2023-04-09T23:06:06.067Z,9.60
2023-04-09T23:08:07.946Z,9.60
2023-04-09T23:10:14.149Z,9.60
2023-04-09T23:12:16.049Z,9.60
2023-04-09T23:14:17.911Z,9.60
2023-04-09T23:16:20.032Z,9.50
2023-04-09T23:18:22.997Z,9.60
2023-04-09T23:20:26.360Z,9.50
2023-04-09T23:22:28.269Z,9.50
2023-04-09T23:24:30.415Z,9.50
2023-04-09T23:26:32.769Z,9.50
2023-04-09T23:28:34.635Z,9.50
2023-04-09T23:30:37.086Z,9.50
2023-04-09T23:32:38.945Z,9.50
2023-04-09T23:34:40.846Z,9.50
2023-04-09T23:36:42.744Z,9.50
2023-04-09T23:38:47.006Z,9.60
2023-04-09T23:40:49.388Z,9.50
2023-04-09T23:42:51.317Z,9.50
2023-04-09T23:44:53.264Z,9.50
2023-04-09T23:46:55.733Z,9.60
2023-04-09T23:48:57.613Z,9.50
2023-04-09T23:50:59.457Z,9.40
2023-04-09T23:53:03.771Z,9.40
2023-04-09T23:55:09.592Z,9.30
2023-04-09T23:57:11.454Z,9.30
2023-04-09T23:59:13.420Z,9.20
